Time;durP1;ratioP1;P1;durP2;ratioP2;P2;SDS_P1;SDS_P2;PMS_P1;PMS_P2;Temp;Humidity;BMP_temperature;BMP_pressure;BME280_temperature;BME280_humidity;BME280_pressure;Samples;Min_cycle;Max_cycle;Signal;HPM_P1;HPM_P2
2023/10/14 00:01:24;;;;;;;14.38;6.97;;;19.60;99.90;;;;;;5054701;28;20166;-56
2023/10/14 00:03:50;;;;;;;13.73;7.30;;;19.60;99.90;;;;;;5054340;28;20209;-57
2023/10/14 00:06:18;;;;;;;9.90;6.47;;;19.60;99.90;;;;;;5054353;28;20171;-57
2023/10/14 00:09:01;;;;;;;14.85;7.55;;;19.60;99.90;;;;;;5054220;28;20171;-58
2023/10/14 00:11:35;;;;;;;11.82;7.03;;;19.60;99.90;;;;;;5054108;28;20211;-58
2023/10/14 00:14:09;;;;;;;13.75;7.63;;;19.60;99.90;;;;;;5054514;28;20162;-57
2023/10/14 00:16:35;;;;;;;12.20;7.20;;;19.60;99.90;;;;;;5054132;28;20213;-56
2023/10/14 00:19:04;;;;;;;9.48;5.90;;;19.60;99.90;;;;;;5054532;28;20649;-58
2023/10/14 00:21:35;;;;;;;13.60;7.40;;;19.60;99.90;;;;;;5054636;28;20202;-58
2023/10/14 00:24:03;;;;;;;14.50;7.18;;;19.40;99.90;;;;;;5054321;28;20213;-57
2023/10/14 00:26:32;;;;;;;15.35;7.72;;;19.20;99.90;;;;;;5054601;28;20190;-57
2023/10/14 00:29:19;;;;;;;17.67;6.55;;;18.90;99.90;;;;;;5054203;28;20217;-57
2023/10/14 00:31:46;;;;;;;17.38;7.22;;;18.80;99.90;;;;;;5053562;28;20166;-56
2023/10/14 00:34:14;;;;;;;8.82;5.65;;;18.70;99.90;;;;;;5053771;28;20163;-57
2023/10/14 00:36:39;;;;;;;10.73;6.65;;;18.70;99.90;;;;;;5053717;28;20657;-57
2023/10/14 00:39:12;;;;;;;12.15;5.65;;;18.70;99.90;;;;;;5053668;28;20162;-57
2023/10/14 00:41:42;;;;;;;11.35;6.78;;;18.80;99.90;;;;;;5053899;28;20181;-57
2023/10/14 00:44:10;;;;;;;12.85;5.72;;;18.70;99.90;;;;;;5053466;28;20573;-56
2023/10/14 00:46:48;;;;;;;11.50;5.60;;;18.70;99.90;;;;;;5053347;28;20261;-57
2023/10/14 00:49:18;;;;;;;10.32;5.78;;;18.70;99.90;;;;;;5053691;28;20185;-56
2023/10/14 00:51:49;;;;;;;11.15;5.82;;;18.70;99.90;;;;;;5053019;28;20170;-58
2023/10/14 00:54:28;;;;;;;13.00;5.32;;;18.70;99.90;;;;;;5053678;28;20171;-57
2023/10/14 00:57:00;;;;;;;11.20;5.18;;;18.70;99.90;;;;;;5053679;28;20232;-58
2023/10/14 00:59:28;;;;;;;9.07;5.00;;;18.60;99.90;;;;;;5035400;28;20640;-53
2023/10/14 01:01:58;;;;;;;14.52;5.63;;;18.60;99.90;;;;;;5053174;28;20538;-58
2023/10/14 01:04:33;;;;;;;10.23;5.43;;;18.60;99.90;;;;;;5053301;28;20206;-57
2023/10/14 01:07:04;;;;;;;9.00;4.57;;;18.70;99.90;;;;;;5053458;28;20182;-58
2023/10/14 01:12:28;;;;;;;10.13;4.72;;;18.70;99.90;;;;;;5053290;28;20177;-57
2023/10/14 01:14:58;;;;;;;11.18;5.00;;;18.70;99.90;;;;;;5053091;28;20163;-55
2023/10/14 01:17:28;;;;;;;12.07;4.65;;;18.60;99.90;;;;;;5053018;28;20229;-57
2023/10/14 01:19:55;;;;;;;6.88;4.25;;;18.60;99.90;;;;;;5052961;28;20245;-57
2023/10/14 01:22:21;;;;;;;5.63;4.00;;;18.60;99.90;;;;;;5053032;28;21168;-57
2023/10/14 01:24:48;;;;;;;8.27;3.80;;;;;;;;;;5053036;28;20177;-56
2023/10/14 01:27:16;;;;;;;7.35;3.65;;;18.50;99.90;;;;;;5052659;28;20701;-56
2023/10/14 01:29:42;;;;;;;6.28;2.80;;;18.40;99.90;;;;;;5052932;28;20205;-57
2023/10/14 01:32:49;;;;;;;5.25;2.65;;;18.20;99.90;;;;;;5052694;28;20159;-57
2023/10/14 01:35:25;;;;;;;5.30;2.72;;;18.10;99.90;;;;;;5052139;28;20189;-57
2023/10/14 01:37:52;;;;;;;4.80;2.90;;;18.10;99.90;;;;;;5052865;28;20244;-57
2023/10/14 01:42:50;;;;;;;9.10;2.90;;;18.00;99.90;;;;;;5052602;28;20197;-57
2023/10/14 01:45:20;;;;;;;4.38;2.58;;;18.00;99.90;;;;;;5052365;28;20166;-58
2023/10/14 01:47:53;;;;;;;9.65;2.33;;;17.90;99.90;;;;;;5052207;28;20276;-50
2023/10/14 01:50:19;;;;;;;9.25;2.97;;;17.80;99.90;;;;;;5052618;28;20243;-57
2023/10/14 01:52:45;;;;;;;8.40;2.60;;;17.70;99.90;;;;;;5052551;28;20170;-57
2023/10/14 01:55:12;;;;;;;3.60;2.33;;;17.60;99.90;;;;;;5052220;28;20209;-56
2023/10/14 01:57:38;;;;;;;6.00;2.92;;;;;;;;;;5052509;28;20242;-57
2023/10/14 02:02:58;;;;;;;6.78;3.55;;;17.60;99.90;;;;;;5051143;28;20229;-55
2023/10/14 02:05:25;;;;;;;6.75;2.85;;;17.60;99.90;;;;;;5052036;28;20202;-57
2023/10/14 02:07:52;;;;;;;12.38;3.28;;;17.50;99.90;;;;;;5051957;28;20167;-56
2023/10/14 02:10:18;;;;;;;10.70;2.97;;;17.20;99.90;;;;;;5052238;28;20175;-56
2023/10/14 02:12:43;;;;;;;3.67;2.33;;;17.00;99.90;;;;;;5051992;28;20169;-54
2023/10/14 02:15:10;;;;;;;2.95;1.90;;;16.80;99.90;;;;;;5051903;28;20201;-54
2023/10/14 02:17:36;;;;;;;2.88;1.50;;;16.80;99.90;;;;;;5051792;28;20565;-55
2023/10/14 02:20:20;;;;;;;0.75;0.60;;;16.30;99.90;;;;;;5051730;28;20181;-54
2023/10/14 02:22:49;;;;;;;0.73;0.38;;;16.20;99.90;;;;;;5051907;28;20352;-55
2023/10/14 02:25:15;;;;;;;1.50;0.30;;;16.10;99.90;;;;;;5051616;28;20565;-55
2023/10/14 02:27:44;;;;;;;0.98;0.82;;;16.00;99.90;;;;;;5051614;28;20175;-52
2023/10/14 02:30:11;;;;;;;1.42;0.63;;;15.90;99.90;;;;;;5052025;28;20162;-51
2023/10/14 02:32:36;;;;;;;2.65;1.08;;;15.90;99.90;;;;;;5051858;28;20174;-54
2023/10/14 02:35:02;;;;;;;0.70;0.60;;;15.70;99.90;;;;;;5051938;28;20170;-50
2023/10/14 02:37:27;;;;;;;1.40;0.98;;;15.60;99.90;;;;;;5051936;28;20618;-52
2023/10/14 02:39:53;;;;;;;2.53;0.80;;;15.70;99.90;;;;;;5051648;28;20630;-51
2023/10/14 02:42:19;;;;;;;3.22;1.10;;;15.70;99.90;;;;;;5051402;28;20259;-51
2023/10/14 02:44:46;;;;;;;1.60;0.80;;;15.60;99.90;;;;;;5051415;28;20178;-52
2023/10/14 02:47:13;;;;;;;0.70;0.40;;;15.50;99.90;;;;;;5051378;28;20219;-54
2023/10/14 02:49:42;;;;;;;2.20;0.88;;;15.50;99.90;;;;;;5051768;28;20228;-50
2023/10/14 02:52:11;;;;;;;4.35;0.98;;;15.50;99.90;;;;;;5051424;28;20159;-52
2023/10/14 02:54:41;;;;;;;1.75;0.82;;;15.40;99.90;;;;;;5051672;28;20186;-53
2023/10/14 02:59:48;;;;;;;1.98;0.88;;;15.40;99.90;;;;;;5051530;28;20177;-52
2023/10/14 03:07:27;;;;;;;2.10;0.70;;;15.10;99.90;;;;;;5051280;28;20181;-55
2023/10/14 03:09:53;;;;;;;2.30;0.80;;;15.00;99.90;;;;;;5051544;28;20256;-55
2023/10/14 03:12:19;;;;;;;1.58;0.70;;;15.00;99.90;;;;;;5051313;28;20159;-54
2023/10/14 03:14:48;;;;;;;1.35;0.60;;;15.10;99.90;;;;;;5054109;28;20171;-53
2023/10/14 03:17:21;;;;;;;1.77;0.60;;;15.10;99.90;;;;;;5055156;28;20238;-52
2023/10/14 03:19:52;;;;;;;0.60;0.50;;;15.00;99.90;;;;;;5055430;28;20206;-56
2023/10/14 03:22:25;;;;;;;1.30;1.15;;;15.10;99.90;;;;;;5055035;28;20541;-53
2023/10/14 03:24:51;;;;;;;2.72;1.77;;;14.90;99.90;;;;;;5055141;28;20550;-51
2023/10/14 03:27:18;;;;;;;1.42;1.25;;;14.90;99.90;;;;;;5055393;28;20177;-55
2023/10/14 03:29:54;;;;;;;2.33;1.35;;;14.70;99.90;;;;;;5055013;28;20174;-52
2023/10/14 03:32:32;;;;;;;4.25;1.73;;;14.70;99.90;;;;;;5054431;28;20497;-55
2023/10/14 03:34:59;;;;;;;4.40;1.55;;;14.50;99.90;;;;;;5055532;28;20184;-54
2023/10/14 03:37:27;;;;;;;3.72;1.20;;;14.60;99.90;;;;;;5054800;28;20641;-53
2023/10/14 03:42:51;;;;;;;3.35;1.30;;;;;;;;;;5054942;28;20205;-57
2023/10/14 03:45:21;;;;;;;1.95;1.20;;;14.60;99.90;;;;;;5055088;28;20174;-57
2023/10/14 03:47:52;;;;;;;2.85;1.20;;;14.60;99.90;;;;;;5054620;28;20268;-56
2023/10/14 03:50:23;;;;;;;3.55;1.13;;;;;;;;;;5054955;28;20171;-56
2023/10/14 03:52:51;;;;;;;1.52;0.80;;;14.40;99.90;;;;;;5054566;28;20209;-56
2023/10/14 03:55:24;;;;;;;4.53;1.20;;;14.20;99.90;;;;;;5054533;28;20500;-56
2023/10/14 03:57:51;;;;;;;8.68;1.90;;;14.00;99.90;;;;;;5054395;28;20174;-56
2023/10/14 04:00:39;;;;;;;6.70;1.73;;;13.70;99.90;;;;;;5054491;28;20206;-57
2023/10/14 04:03:12;;;;;;;15.60;2.35;;;13.70;99.90;;;;;;5054280;28;20705;-57
2023/10/14 04:05:41;;;;;;;9.15;2.10;;;13.70;99.90;;;;;;5036549;28;20193;-54
2023/10/14 04:08:08;;;;;;;6.20;2.38;;;13.60;99.90;;;;;;5054641;28;20174;-57
2023/10/14 04:10:38;;;;;;;20.00;3.47;;;13.60;99.90;;;;;;5054187;28;20575;-56
2023/10/14 04:13:12;;;;;;;7.07;2.15;;;13.70;99.90;;;;;;5054211;28;20575;-55
2023/10/14 04:15:51;;;;;;;16.02;3.72;;;13.70;99.90;;;;;;5054224;28;20304;-54
2023/10/14 04:18:24;;;;;;;10.95;2.30;;;13.70;99.90;;;;;;5054337;28;20197;-56
2023/10/14 04:20:59;;;;;;;8.20;2.78;;;13.80;99.90;;;;;;5054247;28;20600;-56
2023/10/14 04:23:29;;;;;;;9.60;2.33;;;;;;;;;;5054677;28;20217;-56
2023/10/14 04:26:02;;;;;;;9.30;2.42;;;13.70;99.90;;;;;;5052772;28;20524;-55
2023/10/14 04:28:31;;;;;;;15.25;3.03;;;13.70;99.90;;;;;;5054473;28;20175;-53
2023/10/14 04:31:05;;;;;;;12.88;2.63;;;13.70;99.90;;;;;;5054282;28;20162;-56
2023/10/14 04:33:36;;;;;;;9.32;2.13;;;;;;;;;;5053986;28;20213;-53
2023/10/14 04:38:42;;;;;;;9.15;2.20;;;13.70;99.90;;;;;;5053925;28;20672;-50
2023/10/14 04:41:13;;;;;;;11.68;2.33;;;13.60;99.90;;;;;;5053750;28;20166;-49
2023/10/14 04:46:14;;;;;;;6.53;2.28;;;13.60;99.90;;;;;;5053531;28;20173;-50
2023/10/14 04:48:39;;;;;;;9.18;2.20;;;13.60;99.90;;;;;;5053735;28;20216;-52
2023/10/14 04:51:08;;;;;;;18.15;2.35;;;13.60;99.90;;;;;;5053660;28;20250;-51
2023/10/14 04:53:35;;;;;;;9.18;1.90;;;;;;;;;;5053692;28;20197;-50
2023/10/14 04:56:04;;;;;;;8.15;2.60;;;13.60;99.90;;;;;;5053837;28;20209;-49
2023/10/14 04:58:32;;;;;;;8.65;2.67;;;13.60;99.90;;;;;;5053778;28;20763;-51
2023/10/14 05:01:03;;;;;;;8.68;1.80;;;13.60;99.90;;;;;;5053940;28;20171;-51
2023/10/14 05:03:32;;;;;;;10.68;2.17;;;13.60;99.90;;;;;;5053784;28;20214;-52
2023/10/14 05:06:14;;;;;;;14.88;3.30;;;;;;;;;;5053901;28;20167;-51
2023/10/14 05:08:51;;;;;;;9.65;2.58;;;13.50;99.90;;;;;;5053310;28;20181;-50
2023/10/14 05:11:18;;;;;;;13.25;2.22;;;13.60;99.90;;;;;;5053064;28;20259;-50
2023/10/14 05:16:31;;;;;;;8.10;2.38;;;13.40;99.90;;;;;;5053768;28;20264;-54
2023/10/14 05:19:07;;;;;;;8.27;2.40;;;13.30;99.90;;;;;;5053698;28;20533;-51
2023/10/14 05:21:36;;;;;;;13.18;2.72;;;13.20;99.90;;;;;;5053228;28;20170;-50
2023/10/14 05:24:08;;;;;;;8.80;2.42;;;13.20;99.90;;;;;;5052848;28;20201;-51
2023/10/14 05:26:44;;;;;;;8.88;2.35;;;13.10;99.90;;;;;;5052958;28;20170;-50
2023/10/14 05:29:19;;;;;;;7.72;2.35;;;13.10;99.90;;;;;;5052677;28;20224;-50
2023/10/14 05:31:48;;;;;;;10.48;2.17;;;13.10;99.90;;;;;;5052838;28;20500;-50
2023/10/14 05:34:16;;;;;;;12.77;2.83;;;13.10;99.90;;;;;;5052594;28;20217;-49
2023/10/14 05:36:41;;;;;;;13.80;2.15;;;13.00;99.90;;;;;;5052482;28;20194;-50
2023/10/14 05:39:10;;;;;;;15.15;2.28;;;13.00;99.90;;;;;;5052858;28;20202;-50
2023/10/14 05:41:39;;;;;;;12.60;2.97;;;13.00;99.90;;;;;;5052579;28;20564;-49
2023/10/14 05:44:05;;;;;;;12.07;2.47;;;13.00;99.90;;;;;;5052585;28;20276;-49
2023/10/14 05:46:31;;;;;;;10.25;2.15;;;12.90;99.90;;;;;;5052257;28;20558;-49
2023/10/14 05:48:57;;;;;;;7.70;2.22;;;12.90;99.90;;;;;;5052713;28;20167;-50
2023/10/14 05:51:23;;;;;;;18.55;3.92;;;12.80;99.90;;;;;;5052226;28;20621;-50
2023/10/14 05:53:49;;;;;;;9.10;2.22;;;12.80;99.90;;;;;;5052269;28;20175;-50
2023/10/14 05:56:15;;;;;;;10.18;2.92;;;12.80;99.90;;;;;;5052369;28;20162;-50
2023/10/14 05:58:48;;;;;;;11.05;2.90;;;12.90;99.90;;;;;;5052454;28;20759;-51
2023/10/14 06:01:19;;;;;;;12.07;2.67;;;12.90;99.90;;;;;;5034579;28;20171;-51
2023/10/14 06:03:45;;;;;;;9.57;2.42;;;12.80;99.90;;;;;;5051878;28;20708;-52
2023/10/14 06:06:14;;;;;;;11.05;2.67;;;12.80;99.90;;;;;;5052025;28;20167;-57
2023/10/14 06:08:41;;;;;;;8.75;2.60;;;12.80;99.90;;;;;;5052238;28;20175;-58
2023/10/14 06:11:07;;;;;;;8.52;2.13;;;12.80;99.90;;;;;;5051954;28;20171;-58
2023/10/14 06:13:37;;;;;;;14.80;2.55;;;12.70;99.90;;;;;;5051996;28;20261;-57
2023/10/14 06:16:11;;;;;;;15.82;2.97;;;12.70;99.90;;;;;;5052493;28;20533;-50
2023/10/14 06:18:37;;;;;;;12.18;2.30;;;12.70;99.90;;;;;;5051975;28;20239;-51
2023/10/14 06:21:05;;;;;;;8.18;2.33;;;12.70;99.90;;;;;;5051859;28;20158;-53
2023/10/14 06:23:32;;;;;;;8.63;2.20;;;12.60;99.90;;;;;;5051836;28;20364;-52
2023/10/14 06:25:58;;;;;;;9.65;2.40;;;12.70;99.90;;;;;;5051922;28;20167;-50
2023/10/14 06:28:24;;;;;;;18.63;3.05;;;12.70;99.90;;;;;;5051385;28;20178;-50
2023/10/14 06:30:49;;;;;;;20.95;3.85;;;12.60;99.90;;;;;;5051583;28;20188;-51
2023/10/14 06:33:15;;;;;;;16.15;2.63;;;;;;;;;;5051475;28;20185;-50
2023/10/14 06:35:44;;;;;;;14.40;3.05;;;12.60;99.90;;;;;;5051770;28;20167;-49
2023/10/14 06:38:11;;;;;;;10.55;3.05;;;12.70;99.90;;;;;;5051948;28;20494;-51
2023/10/14 06:40:42;;;;;;;11.68;2.38;;;12.60;99.90;;;;;;5051405;28;20170;-50
2023/10/14 06:43:09;;;;;;;15.90;2.60;;;12.60;99.90;;;;;;5051492;28;20221;-49
2023/10/14 06:45:36;;;;;;;10.93;2.20;;;12.70;99.90;;;;;;5051563;28;20162;-56
2023/10/14 06:48:09;;;;;;;8.73;2.30;;;12.70;99.90;;;;;;5032947;28;20249;-56
2023/10/14 06:50:38;;;;;;;11.73;2.22;;;12.60;99.90;;;;;;5051250;28;20656;-56
2023/10/14 06:53:11;;;;;;;10.13;2.38;;;12.60;99.90;;;;;;5051699;28;20178;-56
2023/10/14 06:55:37;;;;;;;4.88;1.95;;;12.60;99.90;;;;;;5051057;28;20653;-55
2023/10/14 06:58:18;;;;;;;10.05;2.58;;;12.60;99.90;;;;;;5051241;28;20205;-55
2023/10/14 07:00:44;;;;;;;11.13;2.45;;;12.60;99.90;;;;;;5050898;28;20245;-57
2023/10/14 07:03:14;;;;;;;7.60;1.90;;;12.70;99.90;;;;;;5051021;28;20190;-57
2023/10/14 07:05:46;;;;;;;16.30;3.20;;;12.70;99.90;;;;;;5051262;28;20249;-56
2023/10/14 07:08:13;;;;;;;16.67;3.17;;;12.70;99.90;;;;;;5051078;28;20189;-56
2023/10/14 07:10:39;;;;;;;10.23;2.92;;;12.80;99.90;;;;;;5051114;28;20163;-56
2023/10/14 07:13:05;;;;;;;10.63;2.28;;;12.80;99.90;;;;;;5051133;28;20246;-57
2023/10/14 07:15:36;;;;;;;6.45;2.25;;;12.90;99.90;;;;;;5051559;28;20237;-53
2023/10/14 07:18:02;;;;;;;13.02;2.83;;;13.00;99.90;;;;;;5050493;28;20198;-56
2023/10/14 07:20:31;;;;;;;12.02;2.67;;;13.00;99.90;;;;;;5051522;28;20194;-57
2023/10/14 07:23:01;;;;;;;13.50;2.90;;;13.10;99.90;;;;;;5051494;28;20214;-56
2023/10/14 07:25:34;;;;;;;9.50;2.20;;;13.10;99.90;;;;;;5051115;28;20155;-57
2023/10/14 07:28:01;;;;;;;8.15;2.10;;;13.10;99.90;;;;;;5051425;28;20174;-52
2023/10/14 07:30:27;;;;;;;16.92;2.45;;;13.10;99.90;;;;;;5051086;28;20158;-57
2023/10/14 07:32:54;;;;;;;9.80;2.95;;;13.10;99.90;;;;;;5050483;28;20181;-57
2023/10/14 07:35:21;;;;;;;14.95;2.70;;;13.10;99.90;;;;;;5050427;28;20658;-58
2023/10/14 07:37:49;;;;;;;9.75;2.65;;;13.10;99.90;;;;;;5051130;28;20266;-58
2023/10/14 07:40:31;;;;;;;11.38;3.00;;;13.20;99.90;;;;;;5050812;28;20645;-52
2023/10/14 07:43:05;;;;;;;14.85;2.30;;;13.20;99.90;;;;;;5051429;28;20206;-56
2023/10/14 07:45:33;;;;;;;12.73;2.50;;;;;;;;;;5051189;28;20171;-50
2023/10/14 07:47:59;;;;;;;14.18;2.78;;;13.20;99.90;;;;;;5051108;28;20222;-52
2023/10/14 07:50:31;;;;;;;11.93;2.67;;;13.30;99.90;;;;;;5051008;28;20174;-53
2023/10/14 07:53:07;;;;;;;11.70;2.53;;;13.30;99.90;;;;;;5051212;28;20179;-50
2023/10/14 07:55:43;;;;;;;10.65;2.72;;;13.40;99.90;;;;;;5050943;28;20258;-57
2023/10/14 07:58:13;;;;;;;10.98;3.05;;;13.60;99.90;;;;;;5050826;28;20166;-57
2023/10/14 08:00:40;;;;;;;10.02;2.67;;;13.50;99.90;;;;;;5051959;28;20189;-57
2023/10/14 08:03:14;;;;;;;11.73;3.17;;;13.50;99.90;;;;;;5054423;28;20317;-57
2023/10/14 08:05:41;;;;;;;12.73;2.67;;;13.60;99.90;;;;;;5054653;28;20592;-55
2023/10/14 08:08:09;;;;;;;13.65;2.92;;;13.60;99.90;;;;;;5054263;28;20166;-57
2023/10/14 08:10:35;;;;;;;11.35;2.40;;;13.60;99.90;;;;;;5054269;28;20595;-53
2023/10/14 08:13:04;;;;;;;12.25;2.90;;;13.50;99.90;;;;;;5054394;28;20248;-50
2023/10/14 08:15:30;;;;;;;10.75;2.00;;;13.70;99.90;;;;;;5054576;28;20186;-53
2023/10/14 08:18:00;;;;;;;12.35;2.67;;;13.80;99.90;;;;;;5054094;28;20665;-52
2023/10/14 08:20:30;;;;;;;7.80;2.38;;;13.90;99.90;;;;;;5036169;28;20330;-50
2023/10/14 08:22:57;;;;;;;6.47;2.45;;;13.70;99.90;;;;;;5053795;28;20210;-50
2023/10/14 08:25:25;;;;;;;9.13;2.25;;;13.80;99.90;;;;;;5053416;28;20198;-52
2023/10/14 08:27:51;;;;;;;7.80;2.35;;;13.90;99.90;;;;;;5053592;28;20170;-51
2023/10/14 08:30:17;;;;;;;11.63;2.90;;;13.90;99.90;;;;;;5053643;28;20163;-51
2023/10/14 08:32:44;;;;;;;10.93;2.95;;;14.00;99.90;;;;;;5054092;28;20242;-52
2023/10/14 08:35:16;;;;;;;6.75;2.08;;;14.00;99.90;;;;;;5053838;28;20170;-50
2023/10/14 08:37:51;;;;;;;11.43;3.38;;;13.90;99.90;;;;;;5053974;28;20178;-50
2023/10/14 08:40:21;;;;;;;10.80;3.10;;;13.80;99.90;;;;;;5053650;28;20163;-49
2023/10/14 08:43:17;;;;;;;11.57;3.05;;;14.00;99.90;;;;;;5053655;28;20198;-49
2023/10/14 08:45:51;;;;;;;10.65;2.65;;;13.80;99.90;;;;;;5050508;28;20528;-57
2023/10/14 08:48:18;;;;;;;12.38;2.40;;;13.70;99.90;;;;;;5053394;28;20581;-52
2023/10/14 08:50:45;;;;;;;19.48;3.40;;;13.80;99.90;;;;;;5053877;28;20217;-55
2023/10/14 08:53:13;;;;;;;10.98;2.67;;;13.90;99.90;;;;;;5053552;28;20540;-50
2023/10/14 08:55:39;;;;;;;9.07;3.28;;;13.70;99.90;;;;;;5053782;28;20255;-50
2023/10/14 08:58:06;;;;;;;12.15;2.30;;;13.90;99.90;;;;;;5053485;28;20675;-51
2023/10/14 09:00:37;;;;;;;10.43;2.78;;;13.90;99.90;;;;;;5053666;28;20174;-49
2023/10/14 09:03:06;;;;;;;11.65;3.17;;;14.10;99.90;;;;;;5053240;28;20217;-49
2023/10/14 09:05:33;;;;;;;14.40;3.55;;;13.90;99.90;;;;;;5053514;28;20261;-49
2023/10/14 09:07:58;;;;;;;12.00;2.55;;;13.90;99.90;;;;;;5053662;28;20167;-49
2023/10/14 09:10:24;;;;;;;10.55;3.25;;;14.30;99.90;;;;;;5053172;28;20166;-49
2023/10/14 09:13:03;;;;;;;11.93;2.88;;;14.20;99.90;;;;;;5052702;28;20163;-49
2023/10/14 09:15:34;;;;;;;11.25;2.38;;;14.40;99.90;;;;;;5053759;28;20504;-49
2023/10/14 09:18:00;;;;;;;15.52;3.58;;;14.10;99.90;;;;;;5053451;28;20637;-49
2023/10/14 09:20:34;;;;;;;13.68;2.83;;;14.00;99.90;;;;;;5053475;28;20163;-49
2023/10/14 09:23:32;;;;;;;12.77;2.50;;;14.00;99.90;;;;;;5053177;28;20204;-49
2023/10/14 09:26:00;;;;;;;10.98;2.58;;;14.00;99.90;;;;;;5053385;28;20570;-49
2023/10/14 09:28:33;;;;;;;8.55;2.55;;;14.20;99.90;;;;;;5053323;28;20197;-49
2023/10/14 09:31:02;;;;;;;7.68;2.33;;;14.20;99.90;;;;;;5053181;28;20174;-49
2023/10/14 09:33:33;;;;;;;11.52;3.40;;;14.30;99.90;;;;;;5053448;28;20178;-49
2023/10/14 09:36:03;;;;;;;11.35;2.40;;;14.40;99.90;;;;;;5053182;28;20167;-49
2023/10/14 09:38:32;;;;;;;9.65;3.03;;;14.20;99.90;;;;;;5053313;28;20220;-51
2023/10/14 09:41:05;;;;;;;12.40;3.17;;;14.30;99.90;;;;;;5053347;28;20179;-49
2023/10/14 09:43:32;;;;;;;10.32;2.65;;;14.50;99.90;;;;;;5052735;28;20210;-49
2023/10/14 09:45:59;;;;;;;12.65;2.38;;;14.70;99.90;;;;;;5052882;28;20170;-50
2023/10/14 09:48:27;;;;;;;14.38;2.70;;;14.50;99.90;;;;;;5052665;28;20588;-49
2023/10/14 09:50:57;;;;;;;13.43;3.05;;;14.60;99.90;;;;;;5052383;28;20167;-49
2023/10/14 09:53:26;;;;;;;9.93;3.20;;;14.50;99.90;;;;;;5052649;28;20162;-49
2023/10/14 09:55:53;;;;;;;12.15;3.00;;;14.80;99.90;;;;;;5052578;28;20182;-49
2023/10/14 09:58:30;;;;;;;13.27;2.72;;;14.80;99.90;;;;;;5052296;28;20656;-52
2023/10/14 10:00:58;;;;;;;8.70;2.85;;;14.70;99.90;;;;;;5052889;28;20178;-50
2023/10/14 10:03:25;;;;;;;12.23;2.60;;;14.60;99.90;;;;;;5052144;28;20206;-48
2023/10/14 10:06:06;;;;;;;11.93;2.78;;;14.80;99.90;;;;;;5052134;28;20182;-49
2023/10/14 10:09:07;;;;;;;9.95;2.83;;;15.00;99.90;;;;;;5052319;28;20201;-49
2023/10/14 10:11:36;;;;;;;11.93;2.90;;;14.90;99.90;;;;;;5052089;28;20231;-50
2023/10/14 10:14:10;;;;;;;5.70;1.65;;;14.80;99.90;;;;;;5052202;28;20251;-49
2023/10/14 10:16:36;;;;;;;10.27;2.10;;;15.00;99.90;;;;;;5052058;28;20166;-49
2023/10/14 10:19:02;;;;;;;9.77;2.90;;;14.70;99.90;;;;;;5051858;28;20185;-49
2023/10/14 10:21:29;;;;;;;10.27;1.95;;;14.50;99.90;;;;;;5052304;28;20272;-50
2023/10/14 10:24:02;;;;;;;6.05;2.28;;;14.50;99.90;;;;;;5051429;28;20289;-49
2023/10/14 10:26:56;;;;;;;14.15;2.75;;;14.50;99.90;;;;;;5052450;28;20167;-48
2023/10/14 10:29:22;;;;;;;7.88;2.45;;;14.70;99.90;;;;;;5051770;28;20304;-49
2023/10/14 10:32:07;;;;;;;7.05;2.10;;;14.60;99.90;;;;;;5051782;28;20202;-48
2023/10/14 10:34:33;;;;;;;9.38;2.17;;;14.70;99.90;;;;;;5051751;28;20571;-49
2023/10/14 10:37:04;;;;;;;13.30;2.40;;;14.60;99.90;;;;;;5051812;28;20252;-50
2023/10/14 10:39:31;;;;;;;11.20;2.38;;;14.50;99.90;;;;;;5051917;28;20317;-49
2023/10/14 10:41:57;;;;;;;7.50;2.10;;;14.30;99.90;;;;;;5052226;28;20182;-54
2023/10/14 10:44:29;;;;;;;9.48;2.58;;;14.40;99.90;;;;;;5051406;28;20210;-55
2023/10/14 10:46:56;;;;;;;5.47;1.85;;;14.30;99.90;;;;;;5051731;28;20218;-51
2023/10/14 10:49:58;;;;;;;8.23;1.85;;;14.10;99.90;;;;;;5051405;28;20166;-56
2023/10/14 10:52:25;;;;;;;7.65;2.00;;;14.20;99.90;;;;;;5051793;28;20559;-50
2023/10/14 10:54:52;;;;;;;10.00;2.30;;;14.10;99.90;;;;;;5051328;28;20202;-49
2023/10/14 10:57:18;;;;;;;9.00;2.20;;;14.10;99.90;;;;;;5051696;28;20173;-49
2023/10/14 10:59:43;;;;;;;10.10;2.17;;;14.10;99.90;;;;;;5051511;28;20171;-49
2023/10/14 11:02:10;;;;;;;9.38;2.55;;;14.20;99.90;;;;;;5051376;28;20167;-49
2023/10/14 11:04:36;;;;;;;12.05;2.60;;;14.10;99.90;;;;;;5051220;28;20202;-51
2023/10/14 11:07:03;;;;;;;8.48;4.65;;;14.10;99.90;;;;;;5051275;28;20179;-49
2023/10/14 11:09:39;;;;;;;7.93;3.25;;;14.10;99.90;;;;;;5051655;28;20173;-49
2023/10/14 11:12:05;;;;;;;21.95;5.53;;;14.20;99.90;;;;;;5051302;28;20162;-48
2023/10/14 11:14:31;;;;;;;10.38;2.70;;;14.60;99.90;;;;;;5051491;28;20171;-49
2023/10/14 11:16:57;;;;;;;18.02;4.75;;;14.90;99.90;;;;;;5051525;28;20536;-49
2023/10/14 11:19:26;;;;;;;21.90;8.25;;;15.00;99.90;;;;;;5051253;28;20273;-50
2023/10/14 11:21:52;;;;;;;14.95;3.47;;;15.40;99.90;;;;;;5051137;28;20196;-56
2023/10/14 11:24:18;;;;;;;11.15;4.10;;;15.80;99.90;;;;;;5050930;28;20256;-56
2023/10/14 11:26:45;;;;;;;10.50;2.83;;;15.70;99.90;;;;;;5051005;28;20630;-55
2023/10/14 11:29:11;;;;;;;26.83;9.85;;;16.00;99.90;;;;;;5051103;28;20258;-56
2023/10/14 11:31:40;;;;;;;9.70;2.58;;;15.80;99.90;;;;;;5050752;28;20162;-57
2023/10/14 11:34:11;;;;;;;10.35;3.85;;;16.10;99.90;;;;;;5051032;28;20166;-53
2023/10/14 11:36:41;;;;;;;23.25;11.07;;;15.60;99.90;;;;;;5055157;28;20262;-55
2023/10/14 11:39:13;;;;;;;21.05;10.32;;;15.40;99.90;;;;;;5055222;28;20173;-56
2023/10/14 11:41:42;;;;;;;12.80;3.80;;;15.20;99.90;;;;;;5036967;28;20163;-57
2023/10/14 11:44:07;;;;;;;10.82;4.05;;;15.00;99.90;;;;;;5054706;28;20577;-56
2023/10/14 11:46:39;;;;;;;12.38;3.95;;;15.10;99.90;;;;;;5054623;28;20221;-57
2023/10/14 11:49:09;;;;;;;7.15;2.60;;;15.00;99.90;;;;;;5054672;28;20622;-55
2023/10/14 11:51:39;;;;;;;9.70;2.08;;;15.30;99.90;;;;;;5054623;28;20697;-57
2023/10/14 11:54:07;;;;;;;5.80;1.90;;;15.30;99.90;;;;;;5054244;28;20574;-54
2023/10/14 11:56:33;;;;;;;7.00;1.80;;;15.20;99.90;;;;;;5054473;28;20170;-54
2023/10/14 11:59:00;;;;;;;7.82;2.20;;;15.50;99.90;;;;;;5055008;28;20174;-56
2023/10/14 12:01:26;;;;;;;7.03;2.78;;;15.70;99.90;;;;;;5037040;28;20163;-55
2023/10/14 12:03:52;;;;;;;6.45;1.52;;;15.30;99.90;;;;;;5054301;28;20206;-50
2023/10/14 12:06:18;;;;;;;12.80;2.63;;;15.20;99.90;;;;;;5054563;28;20174;-56
2023/10/14 12:08:45;;;;;;;6.18;2.05;;;15.40;99.90;;;;;;5054631;28;20170;-54
2023/10/14 12:11:13;;;;;;;7.65;2.50;;;15.50;99.90;;;;;;5054579;28;20178;-55
2023/10/14 12:13:40;;;;;;;8.52;2.33;;;15.70;99.90;;;;;;5054596;28;20170;-55
2023/10/14 12:16:06;;;;;;;9.35;1.95;;;15.70;99.90;;;;;;5054604;28;20175;-56
2023/10/14 12:18:35;;;;;;;11.57;1.83;;;15.70;99.90;;;;;;5054460;28;20201;-55
2023/10/14 12:21:02;;;;;;;11.55;2.50;;;15.40;99.90;;;;;;5054457;28;20163;-53
2023/10/14 12:23:31;;;;;;;7.15;2.35;;;15.40;99.90;;;;;;5036660;28;20202;-55
2023/10/14 12:25:58;;;;;;;7.88;2.80;;;15.80;99.90;;;;;;5054787;28;20197;-56
2023/10/14 12:28:30;;;;;;;8.63;2.60;;;16.00;99.90;;;;;;5054705;28;20171;-55
2023/10/14 12:30:58;;;;;;;4.47;1.80;;;16.10;99.90;;;;;;5054657;28;20235;-53
2023/10/14 12:33:29;;;;;;;8.30;2.80;;;16.20;99.90;;;;;;5054226;28;20647;-55
2023/10/14 12:35:57;;;;;;;9.75;2.50;;;16.20;99.90;;;;;;5054267;28;20174;-55
2023/10/14 12:38:26;;;;;;;10.30;2.35;;;15.70;99.90;;;;;;5053858;28;20162;-54
2023/10/14 12:40:53;;;;;;;7.97;2.30;;;15.60;99.90;;;;;;5053711;28;20683;-49
2023/10/14 12:43:28;;;;;;;8.77;2.78;;;15.70;99.90;;;;;;5053997;28;20576;-49
2023/10/14 12:46:09;;;;;;;9.10;2.20;;;16.00;99.90;;;;;;5053025;28;20155;-53
2023/10/14 12:48:35;;;;;;;8.88;2.67;;;;;;;;;;5053942;28;20214;-51
2023/10/14 12:51:01;;;;;;;7.15;2.72;;;15.80;99.90;;;;;;5053614;28;20166;-52
2023/10/14 12:53:26;;;;;;;11.90;3.53;;;16.10;99.90;;;;;;5053933;28;20167;-52
2023/10/14 12:55:52;;;;;;;8.60;2.40;;;16.00;99.90;;;;;;5053749;28;20159;-50
2023/10/14 12:58:17;;;;;;;8.23;2.05;;;16.20;99.90;;;;;;5053554;28;20664;-49
2023/10/14 13:00:43;;;;;;;8.90;2.63;;;16.10;99.90;;;;;;5053500;28;20648;-49
2023/10/14 13:03:09;;;;;;;9.05;2.13;;;15.70;99.90;;;;;;5053349;28;20281;-50
2023/10/14 13:05:35;;;;;;;13.93;2.67;;;;;;;;;;5053328;28;20630;-49
2023/10/14 13:08:02;;;;;;;7.13;1.80;;;15.40;99.90;;;;;;5053292;28;20167;-49
2023/10/14 13:10:28;;;;;;;12.48;2.80;;;15.40;99.90;;;;;;5053733;28;20167;-50
2023/10/14 13:12:58;;;;;;;11.77;2.80;;;17.50;99.90;;;;;;5053835;28;20658;-50
2023/10/14 13:15:30;;;;;;;9.35;2.17;;;15.10;99.90;;;;;;5053788;28;20158;-49
2023/10/14 13:17:57;;;;;;;9.98;2.25;;;14.90;99.90;;;;;;5053622;28;20657;-50
2023/10/14 13:20:28;;;;;;;7.10;2.05;;;15.20;99.90;;;;;;5053043;28;20197;-49
2023/10/14 13:23:04;;;;;;;6.15;2.30;;;15.40;99.90;;;;;;5052997;28;20205;-49
2023/10/14 13:25:37;;;;;;;5.38;1.70;;;15.40;99.90;;;;;;5052738;28;20300;-50